createdAt,value
2018-02-04T00:01:35.073Z,11.67
2018-02-04T00:04:02.923Z,11.66
2018-02-04T00:06:30.495Z,11.63
2018-02-04T00:08:58.094Z,11.60
2018-02-04T00:11:25.731Z,11.57
2018-02-04T00:13:53.291Z,11.50
2018-02-04T00:16:20.873Z,11.42
2018-02-04T00:18:48.705Z,11.36
2018-02-04T00:21:16.280Z,11.36
2018-02-04T00:23:44.014Z,11.36
2018-02-04T00:26:11.694Z,11.35
2018-02-04T00:28:39.361Z,11.35
2018-02-04T00:31:07.000Z,11.32
2018-02-04T00:33:34.672Z,11.27
2018-02-04T00:36:02.229Z,11.24
2018-02-04T00:38:29.811Z,11.18
2018-02-04T00:40:57.422Z,11.14
2018-02-04T00:43:24.975Z,11.14
2018-02-04T00:45:52.532Z,11.09
2018-02-04T00:48:20.132Z,11.04
2018-02-04T00:50:47.709Z,10.99
2018-02-04T00:53:15.269Z,10.97
2018-02-04T00:55:43.101Z,10.95
2018-02-04T00:58:10.695Z,10.85
2018-02-04T01:00:38.361Z,10.80
2018-02-04T01:03:05.959Z,10.77
2018-02-04T01:05:33.665Z,10.77
2018-02-04T01:08:01.344Z,10.84
2018-02-04T01:10:29.211Z,10.85
2018-02-04T01:12:56.853Z,10.96
2018-02-04T01:15:24.420Z,11.04
2018-02-04T01:17:52.079Z,11.13
2018-02-04T01:20:19.646Z,11.20
2018-02-04T01:22:47.213Z,11.26
2018-02-04T01:25:14.802Z,11.32
2018-02-04T01:27:42.392Z,11.35
2018-02-04T01:30:09.942Z,11.29
2018-02-04T01:32:37.561Z,11.25
2018-02-04T01:35:05.102Z,11.26
2018-02-04T01:37:32.676Z,11.30
2018-02-04T01:40:00.288Z,11.34
2018-02-04T01:42:27.842Z,11.25
2018-02-04T01:44:55.401Z,11.19
2018-02-04T01:47:23.011Z,11.18
2018-02-04T01:49:50.780Z,11.16
2018-02-04T01:52:18.459Z,11.15
2018-02-04T01:54:46.067Z,11.17
2018-02-04T01:57:13.660Z,11.12
2018-02-04T01:59:41.207Z,11.08
2018-02-04T02:02:08.824Z,11.05
2018-02-04T02:04:36.404Z,10.95
2018-02-04T02:07:03.962Z,10.94
2018-02-04T02:09:31.671Z,11.03
2018-02-04T02:11:59.258Z,11.08
2018-02-04T02:14:26.972Z,11.01
2018-02-04T02:16:54.549Z,11.13
2018-02-04T02:19:22.333Z,10.99
2018-02-04T02:21:49.894Z,10.89
2018-02-04T02:24:17.645Z,10.90
2018-02-04T02:26:45.248Z,10.74
2018-02-04T02:29:12.812Z,10.68
2018-02-04T02:31:40.401Z,10.69
2018-02-04T02:34:07.934Z,10.55
2018-02-04T02:36:35.491Z,10.56
2018-02-04T02:39:03.129Z,10.52
2018-02-04T02:41:30.712Z,10.62
2018-02-04T02:43:58.275Z,10.72
2018-02-04T02:46:26.605Z,10.73
2018-02-04T02:48:54.165Z,10.70
2018-02-04T02:51:21.728Z,10.74
2018-02-04T02:53:49.344Z,10.70
2018-02-04T02:56:17.026Z,10.61
2018-02-04T02:58:44.722Z,10.65
2018-02-04T03:01:12.319Z,10.62
2018-02-04T03:03:39.864Z,10.71
2018-02-04T03:06:07.406Z,10.67
2018-02-04T03:08:34.988Z,10.60
2018-02-04T03:11:02.545Z,10.63
2018-02-04T03:13:30.095Z,10.65
2018-02-04T03:15:57.681Z,10.67
2018-02-04T03:18:25.370Z,10.54
2018-02-04T03:20:52.915Z,10.62
2018-02-04T03:23:20.503Z,10.69
2018-02-04T03:25:48.070Z,10.73
2018-02-04T03:28:15.615Z,10.70
2018-02-04T03:30:43.214Z,10.68
2018-02-04T03:33:10.826Z,10.59
2018-02-04T03:35:38.368Z,10.56
2018-02-04T03:38:05.965Z,10.55
2018-02-04T03:40:33.510Z,10.59
2018-02-04T03:43:01.068Z,10.64
2018-02-04T03:45:28.661Z,10.65
2018-02-04T03:47:56.234Z,10.68
2018-02-04T03:50:23.967Z,10.71
2018-02-04T03:52:51.567Z,10.73
2018-02-04T03:55:19.114Z,10.80
2018-02-04T03:57:46.677Z,10.82
2018-02-04T04:00:14.296Z,10.77
2018-02-04T04:02:41.863Z,10.78
2018-02-04T04:05:09.450Z,10.79
2018-02-04T04:07:37.393Z,10.76
2018-02-04T04:10:04.987Z,10.81
2018-02-04T04:12:32.546Z,10.76
2018-02-04T04:15:00.195Z,10.68
2018-02-04T04:17:27.856Z,10.67
2018-02-04T04:19:55.510Z,10.70
2018-02-04T04:22:23.132Z,10.67
2018-02-04T04:24:50.697Z,10.69
2018-02-04T04:27:18.244Z,10.70
2018-02-04T04:29:45.841Z,10.70
2018-02-04T04:32:13.431Z,10.67
2018-02-04T04:34:41.065Z,10.71
2018-02-04T04:37:08.676Z,10.71
2018-02-04T04:39:36.242Z,10.71
2018-02-04T04:42:03.813Z,10.73
2018-02-04T04:44:31.522Z,10.72
2018-02-04T04:46:59.084Z,10.71
2018-02-04T04:49:26.649Z,10.68
2018-02-04T04:51:54.288Z,10.67
2018-02-04T04:54:21.868Z,10.69
2018-02-04T04:56:49.484Z,10.67
2018-02-04T04:59:17.289Z,10.66
2018-02-04T05:01:45.370Z,10.66
2018-02-04T05:04:12.935Z,10.66
2018-02-04T05:06:40.523Z,10.63
2018-02-04T05:09:08.084Z,10.69
2018-02-04T05:11:35.812Z,10.64
2018-02-04T05:14:03.397Z,10.55
2018-02-04T05:16:31.071Z,10.57
2018-02-04T05:18:58.799Z,10.55
2018-02-04T05:21:26.445Z,10.57
2018-02-04T05:23:54.124Z,10.61
2018-02-04T05:26:21.754Z,10.54
2018-02-04T05:28:49.363Z,10.55
2018-02-04T05:31:16.915Z,10.62
2018-02-04T05:33:44.497Z,10.62
2018-02-04T05:36:12.105Z,10.61
2018-02-04T05:38:39.873Z,10.64
2018-02-04T05:41:07.532Z,10.65
2018-02-04T05:43:35.136Z,10.61
2018-02-04T05:46:02.680Z,10.56
2018-02-04T05:48:30.317Z,10.52
2018-02-04T05:50:58.002Z,10.52
2018-02-04T05:53:25.559Z,10.45
2018-02-04T05:55:53.282Z,10.46
2018-02-04T05:58:20.878Z,10.51
2018-02-04T06:00:48.650Z,10.53
2018-02-04T06:03:16.354Z,10.48
2018-02-04T06:05:43.987Z,10.51
2018-02-04T06:08:11.536Z,10.51
2018-02-04T06:10:39.280Z,10.52
2018-02-04T06:13:06.887Z,10.50
2018-02-04T06:15:34.623Z,10.45
2018-02-04T06:18:02.166Z,10.38
2018-02-04T06:20:29.795Z,10.44
2018-02-04T06:22:57.404Z,10.47
2018-02-04T06:25:25.026Z,10.53
2018-02-04T06:27:52.664Z,10.49
2018-02-04T06:30:20.385Z,10.48
2018-02-04T06:32:47.996Z,10.44
2018-02-04T06:35:15.606Z,10.41
2018-02-04T06:37:43.167Z,10.40
2018-02-04T06:40:10.805Z,10.39
2018-02-04T06:42:38.408Z,10.40
2018-02-04T06:45:05.975Z,10.40
2018-02-04T06:47:33.544Z,10.38
2018-02-04T06:50:01.139Z,10.40
2018-02-04T06:52:28.724Z,10.36
2018-02-04T06:54:56.351Z,10.38
2018-02-04T06:57:23.960Z,10.36
2018-02-04T06:59:51.703Z,10.36
2018-02-04T07:02:19.372Z,10.34
2018-02-04T07:04:46.961Z,10.28
2018-02-04T07:07:14.521Z,10.27
2018-02-04T07:09:42.078Z,10.29
2018-02-04T07:12:09.831Z,10.31
2018-02-04T07:14:37.475Z,10.32
2018-02-04T07:17:05.039Z,10.32
2018-02-04T07:19:32.816Z,10.28
2018-02-04T07:22:00.417Z,10.29
2018-02-04T07:24:28.112Z,10.17
2018-02-04T07:26:55.711Z,10.20
2018-02-04T07:29:23.286Z,10.22
2018-02-04T07:31:51.143Z,10.20
2018-02-04T07:34:19.234Z,10.14
2018-02-04T07:36:46.796Z,10.11
2018-02-04T07:39:14.509Z,10.07
2018-02-04T07:41:42.086Z,10.02
2018-02-04T07:44:09.644Z,10.02
2018-02-04T07:46:37.196Z,9.99
2018-02-04T07:49:04.793Z,9.98
2018-02-04T07:51:32.345Z,10.00
2018-02-04T07:53:59.897Z,9.98
2018-02-04T07:56:27.606Z,9.95
2018-02-04T07:58:55.520Z,9.92
2018-02-04T08:01:23.092Z,9.83
2018-02-04T08:03:50.920Z,9.94
2018-02-04T08:06:19.421Z,9.98
2018-02-04T08:08:47.161Z,9.94
2018-02-04T08:11:14.832Z,9.84
2018-02-04T08:13:42.374Z,9.83
2018-02-04T08:16:09.934Z,9.86
2018-02-04T08:18:37.501Z,9.85
2018-02-04T08:21:05.051Z,9.87
2018-02-04T08:23:32.728Z,9.90
2018-02-04T08:26:00.307Z,9.90
2018-02-04T08:28:27.844Z,9.96
2018-02-04T08:30:55.523Z,9.90
2018-02-04T08:33:23.376Z,9.96
2018-02-04T08:35:51.050Z,10.01
2018-02-04T08:38:18.624Z,10.03
2018-02-04T08:40:46.228Z,10.06
2018-02-04T08:43:13.801Z,9.97
2018-02-04T08:45:41.512Z,9.97
2018-02-04T08:48:09.170Z,9.98
2018-02-04T08:50:36.835Z,9.99
2018-02-04T08:53:04.486Z,9.97
2018-02-04T08:55:32.140Z,9.95
2018-02-04T08:57:59.712Z,9.81
2018-02-04T09:00:27.257Z,9.66
2018-02-04T09:02:54.926Z,9.60
2018-02-04T09:05:22.585Z,9.41
2018-02-04T09:07:50.157Z,9.31
2018-02-04T09:10:17.754Z,9.26
2018-02-04T09:12:45.415Z,9.32
2018-02-04T09:15:12.982Z,9.34
2018-02-04T09:17:40.574Z,9.44
2018-02-04T09:20:08.132Z,9.50
2018-02-04T09:22:35.806Z,9.58
2018-02-04T09:25:03.490Z,9.47
2018-02-04T09:27:31.065Z,9.27
2018-02-04T09:29:58.643Z,9.42
2018-02-04T09:32:26.481Z,9.49
2018-02-04T09:34:54.375Z,9.52
2018-02-04T09:37:21.972Z,9.45
2018-02-04T09:39:49.647Z,9.41
2018-02-04T09:42:17.214Z,8.98
2018-02-04T09:44:44.773Z,8.71
2018-02-04T09:47:12.457Z,8.49
2018-02-04T09:49:40.099Z,8.43
2018-02-04T09:52:07.667Z,8.37
2018-02-04T09:54:35.268Z,8.33
2018-02-04T09:57:02.842Z,8.40
2018-02-04T09:59:30.407Z,8.34
2018-02-04T10:01:58.220Z,8.26
2018-02-04T10:04:31.394Z,8.22
2018-02-04T10:06:59.046Z,8.20
2018-02-04T10:09:26.722Z,8.24
2018-02-04T10:11:54.410Z,8.15
2018-02-04T10:14:22.011Z,8.11
2018-02-04T10:16:49.577Z,8.13
2018-02-04T10:19:17.201Z,8.14
2018-02-04T10:21:44.844Z,8.16
2018-02-04T10:24:12.504Z,8.26
2018-02-04T10:26:40.568Z,8.36
2018-02-04T10:29:08.190Z,8.54
2018-02-04T10:31:35.766Z,8.57
2018-02-04T10:34:03.371Z,8.55
2018-02-04T10:36:30.943Z,8.61
2018-02-04T10:38:58.803Z,8.54
2018-02-04T10:41:26.433Z,8.62
2018-02-04T10:43:54.039Z,8.61
2018-02-04T10:46:21.602Z,8.58
2018-02-04T10:48:49.221Z,8.40
2018-02-04T10:51:22.276Z,8.42
2018-02-04T10:53:49.958Z,8.36
2018-02-04T10:56:17.632Z,8.29
2018-02-04T10:58:45.231Z,8.43
2018-02-04T11:01:12.816Z,8.50
2018-02-04T11:03:40.370Z,8.66
2018-02-04T11:06:07.982Z,8.68
2018-02-04T11:08:35.742Z,8.66
2018-02-04T11:11:03.545Z,8.64
2018-02-04T11:13:31.112Z,8.62
2018-02-04T11:15:58.687Z,8.57
2018-02-04T11:18:26.239Z,8.64
2018-02-04T11:20:53.777Z,8.64
2018-02-04T11:23:21.361Z,8.71
2018-02-04T11:25:48.916Z,8.75
2018-02-04T11:28:16.469Z,8.83
2018-02-04T11:30:44.033Z,8.87
2018-02-04T11:33:11.761Z,8.89
2018-02-04T11:35:39.306Z,9.00
2018-02-04T11:38:06.928Z,9.03
2018-02-04T11:40:34.531Z,9.01
2018-02-04T11:43:02.098Z,9.09
2018-02-04T11:45:29.843Z,9.16
2018-02-04T11:47:57.393Z,9.21
2018-02-04T11:50:24.980Z,9.24
2018-02-04T11:52:52.865Z,9.31
2018-02-04T11:55:20.516Z,9.35
2018-02-04T11:57:48.117Z,9.38
2018-02-04T12:00:15.745Z,9.34
2018-02-04T12:02:43.294Z,9.41
2018-02-04T12:05:10.874Z,9.44
2018-02-04T12:07:38.662Z,9.51
2018-02-04T12:10:06.263Z,9.56
2018-02-04T12:12:33.824Z,9.58
2018-02-04T12:15:01.423Z,9.58
2018-02-04T12:17:28.977Z,9.55
2018-02-04T12:19:56.529Z,9.65
2018-02-04T12:22:24.132Z,9.72
2018-02-04T12:24:51.734Z,9.85
2018-02-04T12:27:19.296Z,9.80
2018-02-04T12:29:46.878Z,9.82
2018-02-04T12:32:14.473Z,9.87
2018-02-04T12:34:42.020Z,9.91
2018-02-04T12:37:09.639Z,9.99
2018-02-04T12:39:38.034Z,9.81
2018-02-04T12:42:05.667Z,9.69
2018-02-04T12:44:33.282Z,9.69
2018-02-04T12:47:00.935Z,9.69
2018-02-04T12:49:28.536Z,9.72
2018-02-04T12:51:56.335Z,9.60
2018-02-04T12:54:23.986Z,9.59
2018-02-04T12:56:51.556Z,9.67
2018-02-04T12:59:19.132Z,9.78
2018-02-04T13:01:46.685Z,9.83
2018-02-04T13:04:14.222Z,9.82
2018-02-04T13:06:41.825Z,9.90
2018-02-04T13:09:09.562Z,9.94
2018-02-04T13:11:37.125Z,9.91
2018-02-04T13:14:04.722Z,10.00
2018-02-04T13:16:32.287Z,10.04
2018-02-04T13:18:59.856Z,10.08
2018-02-04T13:21:27.448Z,10.07
2018-02-04T13:23:55.015Z,10.00
2018-02-04T13:26:22.580Z,9.98
2018-02-04T13:28:50.249Z,9.99
2018-02-04T13:31:17.809Z,10.05
2018-02-04T13:33:45.368Z,10.12
2018-02-04T13:36:12.975Z,10.14
2018-02-04T13:38:40.557Z,10.14
2018-02-04T13:41:08.157Z,10.20
2018-02-04T13:43:35.811Z,10.24
2018-02-04T13:46:03.371Z,10.28
2018-02-04T13:48:30.941Z,10.31
2018-02-04T13:50:58.538Z,10.35
2018-02-04T13:53:26.102Z,10.42
2018-02-04T13:55:53.667Z,10.49
2018-02-04T13:58:21.341Z,10.47
2018-02-04T14:00:48.906Z,10.44
2018-02-04T14:03:16.675Z,10.39
2018-02-04T14:05:44.283Z,10.36
2018-02-04T14:08:11.840Z,10.27
2018-02-04T14:10:39.395Z,10.17
2018-02-04T14:13:07.022Z,10.13
2018-02-04T14:15:34.575Z,10.13
2018-02-04T14:18:02.116Z,10.07
2018-02-04T14:20:29.716Z,10.05
2018-02-04T14:22:57.324Z,10.02
2018-02-04T14:25:24.944Z,9.94
2018-02-04T14:27:52.585Z,9.96
2018-02-04T14:30:20.123Z,10.00
2018-02-04T14:32:47.683Z,9.93
2018-02-04T14:35:15.269Z,9.80
2018-02-04T14:37:42.863Z,9.83
2018-02-04T14:40:10.425Z,9.91
2018-02-04T14:42:38.001Z,9.91
2018-02-04T14:45:05.732Z,9.86
2018-02-04T14:47:33.333Z,9.91
2018-02-04T14:50:00.967Z,9.98
2018-02-04T14:52:28.535Z,10.04
2018-02-04T14:54:56.090Z,10.07
2018-02-04T14:57:23.702Z,10.05
2018-02-04T14:59:51.254Z,10.03
2018-02-04T15:02:18.835Z,9.88
2018-02-04T15:04:46.429Z,9.83
2018-02-04T15:07:13.996Z,9.78
2018-02-04T15:09:41.562Z,9.69
2018-02-04T15:12:09.165Z,9.61
2018-02-04T15:14:36.711Z,9.53
2018-02-04T15:17:04.277Z,9.47
2018-02-04T15:19:31.864Z,9.41
2018-02-04T15:21:59.497Z,9.32
2018-02-04T15:24:27.095Z,9.27
2018-02-04T15:26:54.700Z,9.23
2018-02-04T15:29:22.317Z,9.16
2018-02-04T15:31:49.877Z,9.10
2018-02-04T15:34:17.468Z,9.07
2018-02-04T15:36:45.041Z,9.07
2018-02-04T15:39:12.610Z,9.08
2018-02-04T15:41:40.201Z,9.12
2018-02-04T15:44:07.766Z,9.10
2018-02-04T15:46:35.326Z,9.01
2018-02-04T15:49:02.929Z,8.93
2018-02-04T15:51:30.515Z,8.84
2018-02-04T15:53:58.090Z,8.79
2018-02-04T15:56:25.709Z,8.75
2018-02-04T15:58:53.262Z,8.60
2018-02-04T16:01:20.840Z,8.45
2018-02-04T16:03:48.511Z,8.30
2018-02-04T16:06:16.072Z,8.18
2018-02-04T16:08:43.650Z,8.09
2018-02-04T16:11:11.234Z,8.07
2018-02-04T16:13:39.032Z,8.01
2018-02-04T16:16:06.592Z,7.93
2018-02-04T16:18:34.345Z,7.92
2018-02-04T16:21:02.403Z,7.98
2018-02-04T16:23:30.679Z,8.01
2018-02-04T16:25:58.870Z,8.02
2018-02-04T16:28:27.103Z,8.03
2018-02-04T16:30:55.298Z,8.03
2018-02-04T16:33:23.508Z,8.07
2018-02-04T16:35:51.817Z,8.06
2018-02-04T16:38:20.274Z,7.98
2018-02-04T16:40:49.210Z,7.96
2018-02-04T16:43:18.144Z,7.96
2018-02-04T16:45:48.325Z,7.96
2018-02-04T16:48:16.896Z,8.00
2018-02-04T16:50:45.748Z,8.01
2018-02-04T16:53:13.489Z,8.04
2018-02-04T16:55:41.570Z,8.04
2018-02-04T16:58:09.943Z,8.06
2018-02-04T17:00:37.805Z,7.97
2018-02-04T17:03:05.381Z,8.00
2018-02-04T17:05:33.317Z,8.02
2018-02-04T17:08:01.112Z,8.00
2018-02-04T17:10:29.160Z,8.02
2018-02-04T17:12:57.032Z,8.06
2018-02-04T17:15:24.684Z,8.02
2018-02-04T17:17:52.267Z,7.94
2018-02-04T17:20:19.850Z,7.89
2018-02-04T17:22:47.430Z,7.83
2018-02-04T17:25:15.025Z,7.84
2018-02-04T17:27:42.788Z,7.77
2018-02-04T17:30:10.635Z,7.69
2018-02-04T17:32:38.194Z,7.59
2018-02-04T17:35:05.789Z,7.52
2018-02-04T17:37:33.453Z,7.44
2018-02-04T17:40:01.301Z,7.30
2018-02-04T17:42:28.848Z,7.19
2018-02-04T17:44:57.058Z,7.08
2018-02-04T17:47:24.783Z,6.89
2018-02-04T17:49:52.400Z,6.97
2018-02-04T17:52:20.030Z,6.87
2018-02-04T17:54:47.681Z,6.75
2018-02-04T17:57:15.268Z,6.62
2018-02-04T17:59:42.867Z,6.62
2018-02-04T18:02:10.430Z,6.60
2018-02-04T18:04:37.982Z,6.53
2018-02-04T18:07:05.593Z,6.44
2018-02-04T18:09:33.811Z,6.37
2018-02-04T18:12:01.378Z,6.35
2018-02-04T18:14:29.815Z,6.33
2018-02-04T18:16:57.388Z,6.34
2018-02-04T18:19:25.074Z,6.19
2018-02-04T18:21:52.666Z,6.20
2018-02-04T18:24:20.348Z,6.19
2018-02-04T18:26:47.961Z,6.19
2018-02-04T18:29:15.600Z,6.14
2018-02-04T18:31:43.159Z,6.14
2018-02-04T18:34:10.817Z,6.07
2018-02-04T18:36:38.619Z,6.05
2018-02-04T18:39:06.182Z,6.06
2018-02-04T18:41:33.759Z,6.10
2018-02-04T18:44:01.441Z,6.10
2018-02-04T18:46:29.746Z,6.16
2018-02-04T18:48:57.393Z,6.18
2018-02-04T18:51:25.012Z,6.21
2018-02-04T18:53:52.696Z,6.18
2018-02-04T18:56:20.479Z,6.17
2018-02-04T18:58:48.260Z,6.14
2018-02-04T19:01:15.921Z,6.04
2018-02-04T19:03:43.553Z,6.01
2018-02-04T19:06:11.147Z,5.99
2018-02-04T19:08:38.706Z,5.99
2018-02-04T19:11:06.367Z,5.95
2018-02-04T19:13:33.956Z,6.01
2018-02-04T19:16:01.673Z,5.94
2018-02-04T19:18:29.340Z,5.89
2018-02-04T19:20:56.937Z,5.83
2018-02-04T19:23:24.511Z,5.94
2018-02-04T19:25:52.082Z,6.00
2018-02-04T19:28:19.675Z,6.04
2018-02-04T19:30:47.243Z,5.95
2018-02-04T19:33:14.804Z,5.98
2018-02-04T19:35:42.558Z,5.88
2018-02-04T19:38:10.132Z,5.85
2018-02-04T19:40:37.869Z,5.86
2018-02-04T19:43:05.468Z,5.92
2018-02-04T19:45:33.021Z,5.95
2018-02-04T19:48:00.575Z,5.96
2018-02-04T19:50:28.190Z,5.90
2018-02-04T19:52:55.767Z,5.69
2018-02-04T19:55:23.324Z,5.62
2018-02-04T19:57:50.920Z,5.44
2018-02-04T20:00:18.587Z,5.36
2018-02-04T20:02:46.140Z,5.33
2018-02-04T20:05:13.741Z,5.25
2018-02-04T20:07:41.366Z,5.15
2018-02-04T20:10:09.339Z,5.09
2018-02-04T20:12:36.934Z,5.02
2018-02-04T20:15:04.744Z,4.92
2018-02-04T20:17:34.062Z,4.85
2018-02-04T20:20:01.714Z,4.75
2018-02-04T20:22:29.264Z,4.71
2018-02-04T20:24:56.806Z,4.68
2018-02-04T20:27:24.388Z,4.48
2018-02-04T20:29:51.963Z,4.47
2018-02-04T20:32:31.189Z,4.54
2018-02-04T20:35:00.400Z,4.50
2018-02-04T20:37:28.032Z,4.39
2018-02-04T20:39:55.706Z,4.27
2018-02-04T20:42:23.382Z,4.29
2018-02-04T20:44:51.237Z,4.33
2018-02-04T20:47:18.896Z,4.37
2018-02-04T20:49:47.101Z,4.27
2018-02-04T20:52:15.436Z,4.19
2018-02-04T20:54:43.162Z,4.14
2018-02-04T20:57:10.724Z,4.12
2018-02-04T20:59:38.510Z,4.03
2018-02-04T21:02:06.102Z,4.02
2018-02-04T21:04:33.662Z,4.00
2018-02-04T21:07:01.232Z,3.89
2018-02-04T21:09:28.859Z,3.80
2018-02-04T21:11:56.410Z,3.76
2018-02-04T21:14:23.992Z,3.68
2018-02-04T21:16:51.604Z,3.72
2018-02-04T21:19:19.316Z,3.74
2018-02-04T21:21:47.004Z,3.79
2018-02-04T21:24:14.631Z,3.73
2018-02-04T21:26:42.260Z,3.72
2018-02-04T21:29:10.003Z,3.65
2018-02-04T21:31:38.081Z,3.62
2018-02-04T21:34:05.913Z,3.58
2018-02-04T21:36:33.598Z,3.55
2018-02-04T21:39:01.194Z,3.52
2018-02-04T21:41:28.764Z,3.51
2018-02-04T21:43:56.315Z,3.47
2018-02-04T21:46:23.901Z,3.49
2018-02-04T21:48:51.463Z,3.51
2018-02-04T21:51:19.013Z,3.48
2018-02-04T21:53:46.592Z,3.46
2018-02-04T21:56:14.145Z,3.40
2018-02-04T21:58:41.695Z,3.41
2018-02-04T22:01:09.299Z,3.36
2018-02-04T22:03:36.886Z,3.33
2018-02-04T22:06:04.464Z,3.24
2018-02-04T22:08:32.078Z,3.15
2018-02-04T22:10:59.632Z,3.14
2018-02-04T22:13:27.202Z,3.07
2018-02-04T22:15:54.794Z,3.03
2018-02-04T22:18:22.363Z,3.08
2018-02-04T22:20:49.938Z,3.09
2018-02-04T22:23:17.525Z,3.07
2018-02-04T22:25:45.283Z,3.07
2018-02-04T22:28:12.843Z,3.01
2018-02-04T22:30:40.421Z,2.90
2018-02-04T22:33:08.027Z,2.95
2018-02-04T22:35:35.831Z,2.96
2018-02-04T22:38:03.387Z,2.95
2018-02-04T22:40:30.986Z,2.90
2018-02-04T22:42:58.534Z,2.92
2018-02-04T22:45:26.252Z,2.92
2018-02-04T22:47:53.850Z,3.03
2018-02-04T22:50:21.404Z,2.92
2018-02-04T22:52:48.996Z,2.99
2018-02-04T22:55:16.612Z,2.83
2018-02-04T22:57:44.198Z,3.02
2018-02-04T23:00:11.832Z,3.01
2018-02-04T23:02:39.409Z,2.96
2018-02-04T23:05:06.971Z,2.90
2018-02-04T23:07:34.840Z,2.95
2018-02-04T23:10:02.420Z,2.95
2018-02-04T23:12:29.982Z,3.06
2018-02-04T23:14:57.533Z,3.11
2018-02-04T23:17:25.119Z,2.96
2018-02-04T23:19:52.685Z,2.88
2018-02-04T23:22:20.234Z,2.95
2018-02-04T23:24:48.062Z,2.93
2018-02-04T23:27:15.648Z,2.78
2018-02-04T23:29:43.211Z,2.80
2018-02-04T23:32:10.835Z,2.83
2018-02-04T23:34:38.412Z,2.78
2018-02-04T23:37:05.974Z,2.82
2018-02-04T23:39:33.797Z,2.77
2018-02-04T23:42:01.484Z,2.76
2018-02-04T23:44:29.040Z,2.77
2018-02-04T23:46:56.630Z,2.82
2018-02-04T23:49:24.185Z,2.83
2018-02-04T23:51:51.751Z,2.77
2018-02-04T23:54:19.344Z,2.70
2018-02-04T23:56:46.902Z,2.64
2018-02-04T23:59:14.463Z,2.71
